Aérodrome :







RETROUVEZ-NOUS SUR...

 
LOGIN :

S'inscrire | Disclaimer

   EN    FR    IT 

 









Légende :    VFR   VFR Marginal   IFR   IFR Intensif   IFR Très Intensif
Visi : 
Plafond : 
>= 8 km
>= 3000ft
5 à 8 km
1000 à 3000 ft
1500m à 5 km
500 à 1000 ft
800 à 1500m
200 à 500 ft
< 800m
< 200 ft
Symboles :   Orages  Brouillard  Fortes neiges  Fortes précipitations  Vent > 20 kt






- Altitude de l'aérodrome : 1166 ft


KMPV - Edward F Knapp State

DERNIER METAR :
  • 150239Z AUTO 19006KT 10SM SCT010 BKN038 OVC050 08/07 A2902 RMK AO2 T00780072

METARs EXPIRÉS :
  • 150151Z AUTO 18009G16KT 6SM BR BKN009 OVC014 08/08 A2901 RMK AO2 RAE02B15E31 CIG 007V011 SLP831 P0001 T00830078
  • 150137Z AUTO 21005KT 10SM SCT011 BKN014 OVC022 08/07 A2902 RMK AO2 RAE02B15E31 P0000 T00780072
  • 150105Z AUTO 17011KT 6SM BR FEW010 BKN016 OVC024 08/07 A2903 RMK AO2 RAE02 P0000 T00780072
  • 150051Z AUTO 00000KT 1 1/4SM -RA BR OVC010 04/03 A2904 RMK AO2 SLP844 P0003 T00390033
  • 150030Z AUTO 00000KT 1 1/4SM -RA BR OVC009 04/03 A2905 RMK AO2 P0002 T00390033
  • 150021Z AUTO 00000KT 3/4SM -RA BR VV009 03/03 A2906 RMK AO2 P0002 T00330033
  • 142359Z AUTO 00000KT 1SM -RA BR OVC005 04/04 A2908 RMK AO2 P0001 T00390039
  • 142351Z AUTO 00000KT 1 1/4SM -RA BR OVC006 04/03 A2908 RMK AO2 PRESFR SLP858 P0007 60007 T00390033 10061 20033 58050

TAF KMPV
Valide du 15 à 02h jusqu'au 16 à 00h UTC


150229Z 1502/1524 18009G18KT 6SM BR OVC008 WS020/19055KT
FM150400 20008KT P6SM VCSH OVC018 WS020/23040KT
FM150900 26015G23KT P6SM VCSH OVC035
FM151200 27017G26KT P6SM VCSH BKN030 WS020/27045KT
FM151500 27016G31KT P6SM BKN030



MET'MAP, la Météo Aéronautique d'un coup d'oeil ! - Copyright ORBIFLY Décembre 2007 - Disclaimer

ORBIFLY MET'MAP TEAM :

Programmation & Développement : Alexandra Zaïnal
Sur une idée originale de : Baudouin d'Aumeries
Assistance à la programmation : Marc-Olivier Méhu
Soutien technique & logistique : Manuel Goepfert

Contact : metmap@orbifly.com




SOURCES & CREDITS :

   NOAA